createdAt,value
2022-12-18T05:05:33.776Z,46.57
2022-12-18T05:06:33.670Z,46.57
2022-12-18T05:07:33.602Z,46.41
2022-12-18T05:08:33.597Z,46.41
2022-12-18T05:09:33.587Z,46.41
2022-12-18T05:10:37.957Z,46.25
2022-12-18T05:11:34.575Z,46.57
2022-12-18T05:12:33.556Z,46.57
2022-12-18T05:13:33.587Z,46.89
2022-12-18T05:14:33.584Z,46.89
2022-12-18T05:15:33.571Z,46.89
2022-12-18T05:16:33.620Z,47.21
2022-12-18T05:17:33.531Z,47.37
2022-12-18T05:18:33.567Z,47.53
2022-12-18T05:19:33.568Z,47.70
2022-12-18T05:20:33.595Z,47.53
2022-12-18T05:21:33.501Z,47.21
2022-12-18T05:22:33.529Z,47.37
2022-12-18T05:23:33.503Z,46.89
2022-12-18T05:24:33.489Z,47.37
2022-12-18T05:25:33.518Z,47.21
2022-12-18T05:26:33.516Z,46.73
2022-12-18T05:27:33.503Z,46.57
2022-12-18T05:28:33.513Z,46.25
2022-12-18T05:29:33.455Z,47.05
2022-12-18T05:30:33.450Z,46.89
2022-12-18T05:31:38.889Z,46.73
2022-12-18T05:32:36.549Z,46.89
2022-12-18T05:33:33.743Z,47.05
2022-12-18T05:34:33.461Z,46.89
2022-12-18T05:35:33.413Z,47.37
2022-12-18T05:36:33.508Z,47.70
2022-12-18T05:37:36.892Z,47.86
2022-12-18T05:38:34.420Z,47.70
2022-12-18T05:39:33.551Z,48.02
2022-12-18T05:40:33.497Z,48.02
2022-12-18T05:41:33.397Z,47.86
2022-12-18T05:42:33.390Z,47.70
2022-12-18T05:43:33.447Z,48.02
2022-12-18T05:44:33.372Z,48.18
2022-12-18T05:45:33.362Z,48.18
2022-12-18T05:46:33.414Z,47.86
2022-12-18T05:47:33.372Z,48.34
2022-12-18T05:48:33.348Z,47.53
2022-12-18T05:49:33.359Z,48.02
2022-12-18T05:50:33.357Z,48.02
2022-12-18T05:51:33.353Z,48.18
2022-12-18T05:52:33.410Z,48.18
2022-12-18T05:53:33.330Z,48.02
2022-12-18T05:54:33.346Z,48.18
2022-12-18T05:55:33.302Z,47.86
2022-12-18T05:56:33.343Z,47.70
2022-12-18T05:57:33.305Z,47.21
2022-12-18T05:58:33.297Z,47.70
2022-12-18T05:59:33.298Z,47.70
2022-12-18T06:00:33.273Z,48.02
2022-12-18T06:01:33.305Z,48.02
2022-12-18T06:02:33.360Z,47.70
2022-12-18T06:03:34.153Z,48.18
2022-12-18T06:04:34.292Z,48.02
2022-12-18T06:05:33.265Z,48.18
2022-12-18T06:06:33.273Z,47.53
2022-12-18T06:07:33.273Z,48.02
2022-12-18T06:08:33.346Z,47.70
2022-12-18T06:09:33.262Z,47.70
2022-12-18T06:10:33.262Z,47.70
2022-12-18T06:11:33.225Z,47.86
2022-12-18T06:12:33.243Z,47.53
2022-12-18T06:13:33.881Z,47.70
2022-12-18T06:14:33.224Z,47.70
2022-12-18T06:15:33.195Z,47.21
2022-12-18T06:16:33.292Z,47.21
2022-12-18T06:17:33.229Z,47.53
2022-12-18T06:18:33.228Z,47.70
2022-12-18T06:19:33.222Z,48.02
2022-12-18T06:20:33.760Z,47.86
2022-12-18T06:21:34.168Z,47.70
2022-12-18T06:22:33.168Z,46.89
2022-12-18T06:23:33.165Z,47.53
2022-12-18T06:24:33.220Z,47.05
2022-12-18T06:25:33.137Z,47.86
2022-12-18T06:26:33.138Z,47.70
2022-12-18T06:27:33.130Z,48.18
2022-12-18T06:28:33.174Z,48.02
2022-12-18T06:29:33.126Z,47.86
2022-12-18T06:30:33.120Z,47.86
2022-12-18T06:31:33.197Z,48.18
2022-12-18T06:32:33.102Z,48.18
2022-12-18T06:33:33.117Z,48.18
2022-12-18T06:34:33.123Z,48.02
2022-12-18T06:35:33.114Z,48.18
2022-12-18T06:36:33.106Z,48.02
2022-12-18T06:37:33.132Z,48.18
2022-12-18T06:38:33.127Z,48.02
2022-12-18T06:39:33.053Z,47.70
2022-12-18T06:40:33.138Z,48.34
2022-12-18T06:41:33.097Z,49.15
2022-12-18T06:42:33.097Z,48.82
2022-12-18T06:43:33.079Z,48.98
2022-12-18T06:44:33.094Z,48.02
2022-12-18T06:45:33.058Z,48.82
2022-12-18T06:46:33.029Z,49.63
2022-12-18T06:47:33.068Z,49.15
2022-12-18T06:48:33.051Z,48.98
2022-12-18T06:49:33.029Z,48.50
2022-12-18T06:50:33.056Z,49.15
2022-12-18T06:51:32.997Z,49.15
2022-12-18T06:52:32.986Z,49.79
2022-12-18T06:53:33.024Z,49.31
2022-12-18T06:54:33.031Z,48.98
2022-12-18T06:55:32.964Z,48.98
2022-12-18T06:56:33.077Z,48.82
2022-12-18T06:57:33.013Z,48.82
2022-12-18T06:58:32.943Z,48.66
2022-12-18T06:59:33.004Z,48.66
2022-12-18T07:00:32.969Z,49.15
2022-12-18T07:01:33.085Z,49.15
